Time;durP1;ratioP1;P1;durP2;ratioP2;P2;SDS_P1;SDS_P2;PMS_P1;PMS_P2;Temp;Humidity;BMP_temperature;BMP_pressure;BME280_temperature;BME280_humidity;BME280_pressure;Samples;Min_cycle;Max_cycle;Signal;HPM_P1;HPM_P2
2021/07/22 00:00:09;;;;;;;9.40;6.00;;;;;;;20.83;33.68;101841.94;3586644;40;20064;-75
2021/07/22 00:02:41;;;;;;;8.57;6.18;;;;;;;20.78;34.52;101838.81;3586708;40;20468;-74
2021/07/22 00:05:11;;;;;;;8.82;5.90;;;;;;;20.79;34.58;101848.91;3587086;40;20056;-75
2021/07/22 00:07:39;;;;;;;9.15;6.03;;;;;;;20.75;33.99;101839.16;3586519;40;20033;-75
2021/07/22 00:10:08;;;;;;;10.20;6.43;;;;;;;20.75;34.71;101835.53;3586964;40;20121;-75
2021/07/22 00:12:36;;;;;;;9.10;6.10;;;;;;;20.72;34.12;101845.09;3586840;40;20045;-75
2021/07/22 00:15:05;;;;;;;9.30;5.97;;;;;;;20.71;34.47;101840.56;3579852;40;20052;-75
2021/07/22 00:17:33;;;;;;;8.35;5.95;;;;;;;20.69;34.86;101837.97;3586055;40;20043;-75
2021/07/22 00:20:01;;;;;;;9.27;6.40;;;;;;;20.67;34.58;101840.03;3585268;40;20491;-75
2021/07/22 00:22:30;;;;;;;9.18;6.22;;;;;;;20.66;35.13;101841.13;3585381;40;20063;-75
2021/07/22 00:24:58;;;;;;;8.60;6.10;;;;;;;20.62;35.17;101839.72;3585757;40;20138;-74
2021/07/22 00:27:26;;;;;;;8.77;6.18;;;;;;;20.60;34.60;101838.13;3586115;39;20048;-75
2021/07/22 00:29:54;;;;;;;9.32;6.65;;;;;;;20.57;35.05;101841.28;3576956;40;20053;-75
2021/07/22 00:32:22;;;;;;;8.25;5.78;;;;;;;20.55;35.08;101835.91;3586402;40;20041;-75
2021/07/22 00:34:51;;;;;;;9.70;6.38;;;;;;;20.53;34.91;101837.97;3585704;40;20060;-75
2021/07/22 00:37:19;;;;;;;8.05;5.75;;;;;;;20.49;35.24;101836.59;3575061;40;20036;-75
2021/07/22 00:39:49;;;;;;;8.27;5.95;;;;;;;20.50;34.79;101840.25;3587378;40;20103;-75
2021/07/22 00:42:17;;;;;;;9.18;5.85;;;;;;;20.46;35.16;101834.16;3586321;40;20040;-75
2021/07/22 00:44:45;;;;;;;10.18;6.22;;;;;;;20.44;34.84;101839.00;3576298;40;20186;-75
2021/07/22 00:47:15;;;;;;;8.95;6.18;;;;;;;20.43;35.19;101828.94;3583838;40;20040;-74
2021/07/22 00:49:49;;;;;;;9.52;6.40;;;;;;;20.41;35.88;101828.25;3577369;40;20048;-75
2021/07/22 00:52:18;;;;;;;10.95;6.57;;;;;;;20.40;35.96;101825.66;3580537;39;20083;-75
2021/07/22 00:54:48;;;;;;;9.15;6.20;;;;;;;20.39;35.39;101823.91;3577097;40;20052;-75
2021/07/22 00:57:18;;;;;;;9.98;6.43;;;;;;;20.37;35.67;101829.63;3588376;40;20057;-75
2021/07/22 00:59:47;;;;;;;9.65;6.22;;;;;;;20.33;35.17;101822.72;3585076;40;20075;-75
2021/07/22 01:02:15;;;;;;;9.23;6.22;;;;;;;20.33;35.88;101827.38;3585465;40;20049;-75
2021/07/22 01:04:45;;;;;;;9.98;6.47;;;;;;;20.31;36.06;101822.88;3577463;40;20056;-75
2021/07/22 01:07:14;;;;;;;10.43;6.55;;;;;;;20.28;36.19;101819.56;3573812;40;20052;-75
2021/07/22 01:09:43;;;;;;;11.27;6.35;;;;;;;20.28;35.62;101825.97;3577732;40;20072;-75
2021/07/22 01:12:11;;;;;;;9.57;6.45;;;;;;;20.27;36.12;101826.16;3580888;40;20091;-75
2021/07/22 01:14:43;;;;;;;9.35;6.32;;;;;;;20.27;36.06;101818.69;3584535;40;20261;-75
2021/07/22 01:17:23;;;;;;;10.55;6.68;;;;;;;20.26;36.34;101821.63;3577053;40;20041;-75
2021/07/22 01:19:52;;;;;;;9.35;5.47;;;;;;;20.22;35.92;101820.25;3575977;40;20486;-75
2021/07/22 01:22:21;;;;;;;9.88;5.95;;;;;;;20.24;36.35;101821.84;3579617;40;20035;-75
2021/07/22 01:24:49;;;;;;;8.45;6.07;;;;;;;20.22;35.93;101814.69;3576413;40;20056;-75
2021/07/22 01:27:19;;;;;;;10.43;5.90;;;;;;;20.20;36.47;101812.06;3583954;40;20064;-75
2021/07/22 01:29:51;;;;;;;8.45;5.82;;;;;;;20.21;35.99;101816.59;3575485;40;20045;-75
2021/07/22 01:32:19;;;;;;;7.97;5.80;;;;;;;20.20;36.15;101813.97;3579330;40;20055;-75
2021/07/22 01:34:50;;;;;;;8.40;5.70;;;;;;;20.18;36.52;101811.34;3583614;40;20146;-74
2021/07/22 01:37:22;;;;;;;9.73;5.70;;;;;;;20.19;36.54;101818.66;3578961;40;20039;-75
2021/07/22 01:39:51;;;;;;;11.18;6.30;;;;;;;20.16;36.56;101807.03;3580256;40;20405;-75
2021/07/22 01:42:20;;;;;;;9.00;5.75;;;;;;;20.14;36.39;101798.88;3582516;40;20039;-74
2021/07/22 01:44:49;;;;;;;9.32;5.95;;;;;;;20.13;36.42;101804.59;3579311;40;20052;-75
2021/07/22 01:47:18;;;;;;;9.63;6.10;;;;;;;20.12;36.49;101802.84;3562671;40;20076;-75
2021/07/22 01:49:47;;;;;;;7.90;5.68;;;;;;;20.10;36.71;101802.16;3577106;40;20385;-75
2021/07/22 01:52:16;;;;;;;9.95;5.75;;;;;;;20.08;36.71;101796.78;3585774;40;20032;-75
2021/07/22 01:54:48;;;;;;;8.85;5.53;;;;;;;20.08;36.83;101796.78;3577826;40;20052;-75
2021/07/22 01:57:19;;;;;;;8.70;6.03;;;;;;;20.05;36.85;101796.25;3584933;40;20044;-74
2021/07/22 01:59:48;;;;;;;8.93;5.43;;;;;;;20.02;36.96;101797.44;3577895;40;20081;-75
2021/07/22 02:02:17;;;;;;;10.60;6.07;;;;;;;20.01;36.72;101803.19;3577994;40;20385;-75
2021/07/22 02:04:47;;;;;;;8.13;5.45;;;;;;;19.99;36.27;101795.03;3578143;40;20133;-75
2021/07/22 02:07:15;;;;;;;8.88;5.90;;;;;;;19.97;36.25;101796.25;3584728;40;20040;-75
2021/07/22 02:09:57;;;;;;;9.52;5.78;;;;;;;19.95;36.39;101791.72;3587655;40;20057;-75
2021/07/22 02:12:25;;;;;;;8.45;5.60;;;;;;;19.94;36.95;101800.22;3587405;40;20405;-75
2021/07/22 02:14:53;;;;;;;9.93;5.93;;;;;;;19.92;37.04;101796.75;3586241;40;20063;-75
2021/07/22 02:17:22;;;;;;;7.28;5.18;;;;;;;19.91;36.17;101798.66;3587275;40;20052;-75
2021/07/22 02:19:50;;;;;;;8.55;5.57;;;;;;;19.90;36.36;101796.94;3587769;40;20062;-75
2021/07/22 02:22:18;;;;;;;9.25;5.40;;;;;;;19.89;36.40;101797.09;3581543;40;20044;-75
2021/07/22 02:24:57;;;;;;;9.90;5.43;;;;;;;19.88;36.81;101796.22;3580830;40;20056;-74
2021/07/22 02:27:35;;;;;;;8.80;5.85;;;;;;;19.85;36.47;101802.09;3575622;40;20125;-74
2021/07/22 02:30:06;;;;;;;9.10;6.20;;;;;;;19.85;36.63;101806.78;3585835;40;20056;-74
2021/07/22 02:32:35;;;;;;;9.20;6.05;;;;;;;19.81;37.03;101803.50;3586573;40;20044;-74
2021/07/22 02:35:05;;;;;;;8.45;5.72;;;;;;;19.79;36.83;101800.03;3586552;40;20055;-74
2021/07/22 02:37:52;;;;;;;8.07;5.57;;;;;;;19.75;36.60;101806.97;3587913;40;20055;-75
2021/07/22 02:40:24;;;;;;;8.32;5.07;;;;;;;19.74;37.08;101808.00;3581948;40;20129;-77
2021/07/22 02:42:53;;;;;;;7.03;4.90;;;;;;;19.71;36.80;101808.34;3586628;40;20040;-74
2021/07/22 02:45:25;;;;;;;7.63;5.53;;;;;;;19.66;37.12;101805.22;3577972;40;20048;-75
2021/07/22 02:47:53;;;;;;;8.73;5.70;;;;;;;19.68;36.75;101805.03;3577043;40;20099;-75
2021/07/22 02:50:22;;;;;;;7.63;5.30;;;;;;;19.67;37.06;101812.50;3581629;40;20195;-75
2021/07/22 02:52:55;;;;;;;8.35;5.50;;;;;;;19.64;37.05;101812.81;3576001;40;20041;-75
2021/07/22 02:55:25;;;;;;;7.68;5.15;;;;;;;19.66;36.96;101815.44;3587032;40;20044;-74
2021/07/22 02:57:54;;;;;;;9.25;5.65;;;;;;;19.62;36.93;101811.25;3584231;40;20043;-74
2021/07/22 03:00:23;;;;;;;8.18;5.32;;;;;;;19.61;36.44;101810.38;3575920;40;20052;-74
2021/07/22 03:02:51;;;;;;;8.50;6.10;;;;;;;19.60;36.83;101811.41;3573710;40;20053;-74
2021/07/22 03:05:20;;;;;;;8.05;5.63;;;;;;;19.58;37.30;101810.72;3578549;40;20133;-75
2021/07/22 03:07:49;;;;;;;8.68;5.90;;;;;;;19.59;37.13;101811.59;3577318;40;20490;-75
2021/07/22 03:10:17;;;;;;;7.60;5.13;;;;;;;19.56;37.01;101807.25;3578491;40;20519;-75
2021/07/22 03:12:46;;;;;;;7.60;5.05;;;;;;;19.56;36.85;101819.22;3586786;40;20041;-74
2021/07/22 03:15:15;;;;;;;6.95;5.10;;;;;;;19.54;36.50;101817.66;3578877;40;20096;-75
2021/07/22 03:17:48;;;;;;;7.63;5.20;;;;;;;19.52;37.01;101805.84;3585030;40;20069;-75
2021/07/22 03:20:18;;;;;;;8.18;5.38;;;;;;;19.51;37.39;101804.13;3587567;40;20053;-75
2021/07/22 03:22:51;;;;;;;;;;;;;;;19.22;37.27;101811.94;3587023;40;20036;-74
2021/07/22 03:25:29;;;;;;;8.68;4.68;;;;;;;19.41;36.80;101807.00;3579294;40;19932;-75
2021/07/22 03:28:19;;;;;;;8.75;5.55;;;;;;;19.43;36.96;101810.44;3586292;40;20048;-75
2021/07/22 03:30:54;;;;;;;7.85;5.38;;;;;;;19.41;37.38;101806.13;3580217;40;20044;-74
2021/07/22 03:34:01;;;;;;;8.75;5.68;;;;;;;19.37;37.46;101811.13;3581139;40;20057;-75
2021/07/22 03:36:35;;;;;;;8.55;5.65;;;;;;;19.36;36.93;101806.59;3577681;40;20076;-75
2021/07/22 03:39:10;;;;;;;9.68;4.97;;;;;;;19.34;37.36;101800.38;3577296;40;20053;-74
2021/07/22 03:41:47;;;;;;;8.52;5.55;;;;;;;19.35;37.18;101806.81;3586211;40;20048;-74
2021/07/22 03:44:25;;;;;;;8.80;5.60;;;;;;;19.33;37.86;101803.31;3576167;40;20060;-74
2021/07/22 03:46:53;;;;;;;8.77;5.63;;;;;;;19.30;37.25;101798.09;3579664;40;21082;-74
2021/07/22 03:49:25;;;;;;;8.00;5.20;;;;;;;19.25;37.40;101794.97;3579810;40;20130;-74
2021/07/22 03:51:56;;;;;;;7.95;5.25;;;;;;;19.26;37.74;101796.72;3578029;40;20383;-74
2021/07/22 03:54:32;;;;;;;8.50;5.47;;;;;;;19.23;37.39;101799.81;3575513;40;20137;-74
2021/07/22 03:57:02;;;;;;;7.50;4.95;;;;;;;19.23;37.41;101795.13;3576615;40;20051;-74
2021/07/22 03:59:31;;;;;;;9.27;5.20;;;;;;;19.23;37.22;101802.56;3587754;40;20138;-75
2021/07/22 04:02:01;;;;;;;7.45;5.05;;;;;;;19.22;37.75;101806.38;3582526;40;20045;-74
2021/07/22 04:04:36;;;;;;;7.47;5.22;;;;;;;19.18;37.46;101803.94;3577483;40;20056;-74
2021/07/22 04:07:04;;;;;;;9.30;5.97;;;;;;;19.17;38.30;101804.13;3586521;40;20329;-75
2021/07/22 04:09:47;;;;;;;;;;;;;;;18.87;38.60;101802.72;3586613;40;20056;-75
2021/07/22 04:12:35;;;;;;;8.10;5.13;;;;;;;19.10;37.67;101800.28;3585559;40;19937;-74
2021/07/22 04:15:24;;;;;;;7.35;4.85;;;;;;;19.11;37.82;101808.41;3589464;40;20505;-75
2021/07/22 04:18:10;;;;;;;8.63;5.20;;;;;;;19.09;37.72;101801.31;3583687;40;20308;-75
2021/07/22 04:21:03;;;;;;;9.27;5.72;;;;;;;19.08;37.87;101800.44;3578878;40;20043;-75
2021/07/22 04:23:31;;;;;;;8.35;5.35;;;;;;;19.08;38.34;101803.22;3586465;40;20137;-74
2021/07/22 04:26:04;;;;;;;8.20;4.93;;;;;;;19.07;38.16;101804.25;3572519;40;20036;-74
2021/07/22 04:28:43;;;;;;;8.52;5.40;;;;;;;19.09;38.45;101806.84;3581958;40;20060;-74
2021/07/22 04:31:16;;;;;;;8.80;5.60;;;;;;;19.12;38.79;101806.50;3583329;40;20036;-74
2021/07/22 04:34:03;;;;;;;9.93;5.55;;;;;;;19.08;38.31;101807.88;3589486;40;20142;-75
2021/07/22 04:36:41;;;;;;;10.05;5.35;;;;;;;19.08;38.07;101808.75;3576016;39;20052;-75
2021/07/22 04:39:24;;;;;;;8.27;5.10;;;;;;;19.08;37.91;101818.97;3587419;40;20052;-74
2021/07/22 04:42:02;;;;;;;7.90;5.20;;;;;;;19.09;38.39;101813.28;3584859;40;20051;-75
2021/07/22 04:44:48;;;;;;;7.93;5.72;;;;;;;19.10;38.72;101814.97;3587754;40;20095;-75
2021/07/22 04:47:36;;;;;;;9.52;5.57;;;;;;;19.12;38.34;101812.91;3584255;40;20411;-75
2021/07/22 04:50:23;;;;;;;9.57;6.05;;;;;;;19.12;38.89;101814.81;3587930;40;20113;-75
2021/07/22 04:53:11;;;;;;;9.13;5.25;;;;;;;19.13;38.34;101816.56;3578015;40;20305;-75
2021/07/22 04:55:46;;;;;;;9.57;5.88;;;;;;;19.15;38.96;101811.72;3586264;40;20044;-74
2021/07/22 04:58:15;;;;;;;8.32;5.72;;;;;;;19.16;39.03;101811.56;3584663;40;20067;-75
2021/07/22 05:00:44;;;;;;;9.13;5.40;;;;;;;19.19;38.94;101810.34;3576945;40;20056;-76
2021/07/22 05:03:20;;;;;;;8.82;5.95;;;;;;;19.20;38.27;101810.19;3587795;40;20064;-75
2021/07/22 05:05:50;;;;;;;7.97;5.43;;;;;;;19.22;38.54;101812.78;3589202;40;20044;-75
2021/07/22 05:08:44;;;;;;;8.85;5.95;;;;;;;19.21;38.87;101819.38;3586414;40;20055;-75
2021/07/22 05:11:40;;;;;;;10.02;5.57;;;;;;;19.23;38.67;101819.22;3582512;40;20313;-76
2021/07/22 05:14:26;;;;;;;9.57;5.80;;;;;;;19.23;39.30;101820.09;3586180;40;20039;-75
2021/07/22 05:17:18;;;;;;;9.38;5.72;;;;;;;19.26;39.25;101821.66;3582018;40;20045;-75
2021/07/22 05:20:06;;;;;;;10.07;6.15;;;;;;;19.30;39.18;101815.63;3577497;40;20110;-74
2021/07/22 05:22:52;;;;;;;10.20;5.47;;;;;;;19.32;39.31;101815.44;3589033;40;20091;-75
2021/07/22 05:25:46;;;;;;;9.45;6.00;;;;;;;19.34;39.43;101813.38;3568247;40;20056;-75
2021/07/22 05:28:24;;;;;;;8.98;6.10;;;;;;;19.38;38.92;101814.78;3594749;40;20045;-75
2021/07/22 05:31:12;;;;;;;9.70;5.90;;;;;;;19.42;39.19;101817.06;3581240;40;20122;-75
2021/07/22 05:34:13;;;;;;;10.10;6.40;;;;;;;19.41;38.86;101822.78;3583560;40;20088;-75
2021/07/22 05:37:07;;;;;;;8.77;5.70;;;;;;;19.48;39.24;101821.06;3585375;40;20687;-75
2021/07/22 05:39:46;;;;;;;9.68;6.10;;;;;;;19.47;39.08;101822.09;3589346;40;20048;-75
2021/07/22 05:42:14;;;;;;;8.25;5.57;;;;;;;19.52;39.49;101815.03;3572781;40;20134;-75
2021/07/22 05:44:42;;;;;;;8.13;5.70;;;;;;;19.56;38.82;101818.34;3589487;40;20052;-75
2021/07/22 05:47:11;;;;;;;9.80;5.78;;;;;;;19.59;39.47;101814.38;3585927;40;20045;-75
2021/07/22 05:49:39;;;;;;;9.02;6.18;;;;;;;19.62;39.06;101817.66;3585022;40;20052;-73
2021/07/22 05:52:09;;;;;;;9.52;6.30;;;;;;;19.68;39.43;101816.16;3572800;40;20041;-75
2021/07/22 05:54:37;;;;;;;9.10;5.75;;;;;;;19.69;39.25;101813.19;3587105;40;20130;-75
2021/07/22 05:57:06;;;;;;;9.77;6.78;;;;;;;19.71;39.02;101818.56;3587712;40;20036;-76
2021/07/22 05:59:34;;;;;;;9.80;6.40;;;;;;;19.74;39.04;101815.47;3585120;40;20394;-74
2021/07/22 06:02:05;;;;;;;9.60;6.22;;;;;;;19.78;39.21;101817.72;3587098;39;20049;-74
2021/07/22 06:04:33;;;;;;;10.65;6.50;;;;;;;19.80;39.15;101820.31;3580321;40;20312;-74
2021/07/22 06:07:01;;;;;;;9.70;6.32;;;;;;;19.83;38.90;101823.66;3573025;40;20045;-74
2021/07/22 06:09:30;;;;;;;10.00;6.13;;;;;;;19.88;39.14;101820.34;3587666;40;20129;-75
2021/07/22 06:11:58;;;;;;;9.82;6.18;;;;;;;19.88;39.30;101820.34;3578831;40;20658;-75
2021/07/22 06:14:26;;;;;;;10.07;5.85;;;;;;;19.91;38.82;101818.13;3587553;40;20056;-74
2021/07/22 06:16:54;;;;;;;8.15;5.65;;;;;;;19.95;38.95;101816.72;3569216;40;20076;-76
2021/07/22 06:19:22;;;;;;;9.15;5.55;;;;;;;20.02;39.11;101816.03;3587782;40;20044;-74
2021/07/22 06:21:51;;;;;;;8.50;5.60;;;;;;;20.06;39.39;101817.44;3565464;40;20398;-75
2021/07/22 06:24:19;;;;;;;9.65;5.90;;;;;;;20.11;39.36;101820.56;3587514;40;20055;-75
2021/07/22 06:26:49;;;;;;;9.13;5.78;;;;;;;20.21;39.28;101824.06;3579799;40;20037;-75
2021/07/22 06:29:18;;;;;;;10.20;6.55;;;;;;;20.23;39.57;101822.88;3588221;40;20131;-74
2021/07/22 06:31:46;;;;;;;11.15;7.38;;;;;;;20.30;40.17;101820.25;3575622;40;20447;-75
2021/07/22 06:34:14;;;;;;;11.57;7.07;;;;;;;20.39;39.34;101823.91;3588097;40;20052;-76
2021/07/22 06:36:42;;;;;;;11.65;7.63;;;;;;;20.45;39.33;101821.31;3587853;40;20056;-77
2021/07/22 06:39:10;;;;;;;11.82;7.63;;;;;;;20.54;39.14;101820.25;3589542;40;20048;-75
2021/07/22 06:41:38;;;;;;;12.20;7.63;;;;;;;20.61;39.53;101823.19;3574301;39;20054;-75
2021/07/22 06:44:08;;;;;;;11.05;7.63;;;;;;;20.71;39.41;101823.88;3588357;39;20071;-74
2021/07/22 06:46:35;;;;;;;10.80;8.02;;;;;;;20.76;39.28;101826.13;3585884;40;20141;-75
2021/07/22 06:49:04;;;;;;;14.18;9.35;;;;;;;20.81;39.01;101818.16;3585061;40;20056;-75
2021/07/22 06:51:32;;;;;;;15.27;9.90;;;;;;;20.86;38.95;101824.91;3586889;40;20050;-74
2021/07/22 06:54:00;;;;;;;13.55;10.43;;;;;;;20.92;38.67;101829.78;3588146;40;20064;-74
2021/07/22 06:56:28;;;;;;;15.18;10.85;;;;;;;20.97;38.76;101824.56;3578318;39;20408;-75
2021/07/22 06:58:56;;;;;;;14.75;10.30;;;;;;;21.03;38.49;101820.19;3591244;39;20161;-74
2021/07/22 07:01:25;;;;;;;15.10;10.32;;;;;;;21.09;38.50;101825.03;3587061;40;20040;-75
2021/07/22 07:03:53;;;;;;;14.98;10.13;;;;;;;21.11;38.47;101822.97;3583732;40;20405;-76
2021/07/22 07:06:21;;;;;;;12.77;9.30;;;;;;;21.15;38.63;101826.28;3586671;40;20038;-75
2021/07/22 07:08:49;;;;;;;15.50;10.20;;;;;;;21.19;38.49;101828.50;3588846;39;20424;-77
2021/07/22 07:11:17;;;;;;;16.73;11.23;;;;;;;21.22;38.42;101818.94;3580636;40;20045;-76
2021/07/22 07:13:45;;;;;;;15.75;10.90;;;;;;;21.25;38.42;101826.91;3588477;40;20037;-75
2021/07/22 07:16:13;;;;;;;15.27;11.30;;;;;;;21.28;38.63;101823.78;3587787;40;20282;-76
2021/07/22 07:18:43;;;;;;;14.60;10.85;;;;;;;21.33;38.46;101830.53;3591456;40;20040;-76
2021/07/22 07:21:16;;;;;;;14.32;10.75;;;;;;;21.36;38.76;101830.19;3574637;40;20045;-78
2021/07/22 07:23:44;;;;;;;13.85;10.18;;;;;;;21.40;38.74;101827.91;3591705;40;20405;-76
2021/07/22 07:26:12;;;;;;;15.52;10.70;;;;;;;21.41;38.26;101822.16;3590667;40;20101;-78
2021/07/22 07:28:40;;;;;;;13.38;9.77;;;;;;;21.44;38.00;101821.78;3587429;40;20028;-79
2021/07/22 07:31:08;;;;;;;14.30;9.93;;;;;;;21.47;37.86;101820.56;3586077;40;20044;-77
2021/07/22 07:33:36;;;;;;;13.85;9.70;;;;;;;21.51;38.47;101821.06;3589081;40;20059;-78
2021/07/22 07:36:06;;;;;;;14.75;10.27;;;;;;;21.55;38.03;101828.03;3588328;40;20389;-75
2021/07/22 07:38:34;;;;;;;14.55;9.95;;;;;;;21.55;38.11;101825.22;3581654;40;20134;-77
2021/07/22 07:41:02;;;;;;;13.55;9.25;;;;;;;21.58;38.05;101827.66;3584998;40;20059;-76
2021/07/22 07:43:30;;;;;;;15.52;10.35;;;;;;;21.62;38.13;101834.63;3588294;40;20028;-78
2021/07/22 07:45:58;;;;;;;14.85;10.38;;;;;;;21.66;38.37;101833.19;3590719;40;20125;-78
2021/07/22 07:48:27;;;;;;;14.77;9.77;;;;;;;21.71;38.41;101822.41;3590007;40;20433;-81
2021/07/22 07:51:21;;;;;;;13.02;8.80;;;;;;;21.75;38.30;101832.97;3579484;40;20045;-79
2021/07/22 07:53:50;;;;;;;12.82;8.32;;;;;;;21.81;38.60;101826.69;3589747;40;20057;-79
2021/07/22 07:56:19;;;;;;;13.45;8.90;;;;;;;21.85;39.03;101827.19;3582526;40;20391;-78
2021/07/22 07:58:47;;;;;;;13.35;9.25;;;;;;;21.92;38.46;101828.19;3586207;40;20056;-78
2021/07/22 08:01:15;;;;;;;13.65;9.05;;;;;;;22.01;38.62;101820.63;3587100;40;20036;-77
2021/07/22 08:03:48;;;;;;;13.07;8.80;;;;;;;22.11;38.29;101824.06;3578659;40;20312;-78
2021/07/22 08:06:18;;;;;;;13.07;9.20;;;;;;;22.17;38.60;101824.19;3579203;40;20048;-78
2021/07/22 08:08:48;;;;;;;14.95;9.57;;;;;;;22.29;38.45;101827.44;3578173;40;20053;-77
2021/07/22 08:11:16;;;;;;;12.18;8.98;;;;;;;22.36;38.43;101821.97;3574136;39;20049;-76
2021/07/22 08:13:45;;;;;;;13.35;8.95;;;;;;;22.45;38.10;101818.94;3573786;40;20089;-78
2021/07/22 08:16:17;;;;;;;;;;;;;;;22.19;38.68;101816.50;3578789;40;20037;-78
2021/07/22 08:18:47;;;;;;;10.23;7.78;;;;;;;22.55;38.42;101808.41;3588022;40;20271;-77
2021/07/22 08:21:14;;;;;;;11.52;8.15;;;;;;;22.70;38.18;101804.78;3572777;40;20130;-77
2021/07/22 08:23:43;;;;;;;11.07;7.65;;;;;;;22.79;37.94;101806.41;3583651;40;20097;-81
2021/07/22 08:26:12;;;;;;;13.90;8.57;;;;;;;22.90;37.84;101812.41;3576926;40;20056;-77
2021/07/22 08:28:41;;;;;;;15.00;8.85;;;;;;;22.99;37.77;101803.94;3589376;40;20040;-77
2021/07/22 08:31:10;;;;;;;15.55;8.73;;;;;;;23.09;37.93;101808.19;3579317;40;20130;-76
2021/07/22 08:33:39;;;;;;;12.10;8.27;;;;;;;23.20;37.72;101816.09;3593518;40;20392;-76
2021/07/22 08:36:07;;;;;;;10.82;7.57;;;;;;;23.32;37.78;101808.09;3589103;40;20052;-77
2021/07/22 08:38:35;;;;;;;12.07;8.18;;;;;;;23.44;37.40;101800.97;3589363;40;20105;-77
2021/07/22 08:41:03;;;;;;;10.85;7.10;;;;;;;23.55;37.19;101800.47;3563447;40;20415;-78
2021/07/22 08:43:38;;;;;;;11.73;7.28;;;;;;;23.70;37.21;101811.66;3579266;40;20049;-75
2021/07/22 08:46:06;;;;;;;10.52;6.80;;;;;;;23.79;36.85;101801.22;3584441;40;20044;-75
2021/07/22 08:48:35;;;;;;;9.35;6.15;;;;;;;23.94;36.74;101805.69;3586174;40;20059;-76
2021/07/22 08:51:04;;;;;;;10.95;6.30;;;;;;;24.05;36.69;101799.56;3587383;40;20047;-75
2021/07/22 08:53:35;;;;;;;10.30;6.15;;;;;;;24.19;36.49;101805.34;3587451;40;20092;-75
2021/07/22 08:56:07;;;;;;;9.27;6.15;;;;;;;24.31;36.00;101803.72;3585193;40;20040;-73
2021/07/22 08:58:38;;;;;;;9.73;5.72;;;;;;;24.42;35.63;101806.88;3575528;40;20047;-75
2021/07/22 09:01:10;;;;;;;8.68;5.70;;;;;;;24.53;35.86;101807.41;3585781;39;20325;-74
2021/07/22 09:03:38;;;;;;;8.52;6.00;;;;;;;24.63;35.67;101803.16;3584419;40;20057;-75
2021/07/22 09:06:25;;;;;;;8.38;5.78;;;;;;;24.77;35.52;101804.19;3585176;40;20037;-74
2021/07/22 09:08:57;;;;;;;9.07;5.83;;;;;;;24.88;35.27;101798.00;3587020;39;20052;-75
2021/07/22 09:11:30;;;;;;;8.45;5.82;;;;;;;25.01;35.11;101797.25;3586606;40;20048;-74
2021/07/22 09:14:18;;;;;;;8.88;6.05;;;;;;;25.11;34.48;101792.97;3585306;40;20184;-73
2021/07/22 09:16:46;;;;;;;9.85;6.35;;;;;;;25.20;34.08;101794.53;3584628;40;20044;-74
2021/07/22 09:19:31;;;;;;;10.60;6.60;;;;;;;25.29;33.48;101800.00;3586721;40;20089;-74
2021/07/22 09:22:00;;;;;;;9.10;6.40;;;;;;;25.33;33.56;101795.75;3586391;40;20463;-74
2021/07/22 09:24:28;;;;;;;10.88;6.80;;;;;;;25.39;33.60;101795.75;3587526;40;20065;-74
2021/07/22 09:26:57;;;;;;;8.65;6.03;;;;;;;25.45;33.47;101796.88;3584688;39;20049;-73
2021/07/22 09:29:26;;;;;;;12.65;6.18;;;;;;;25.53;33.56;101802.28;3588348;40;20056;-74
2021/07/22 09:32:05;;;;;;;11.13;6.85;;;;;;;25.60;33.04;101797.59;3575753;40;20091;-74
2021/07/22 09:34:33;;;;;;;9.43;6.45;;;;;;;25.62;33.53;101788.97;3585675;40;20052;-74
2021/07/22 09:37:08;;;;;;;9.15;6.20;;;;;;;25.73;33.12;101788.38;3587992;39;20044;-79
2021/07/22 09:39:38;;;;;;;9.35;6.80;;;;;;;25.76;32.85;101793.56;3587528;40;20048;-75
2021/07/22 09:42:07;;;;;;;9.82;6.80;;;;;;;25.84;32.96;101790.59;3590529;40;20090;-76
2021/07/22 09:44:38;;;;;;;9.63;6.60;;;;;;;25.90;32.76;101785.00;3590156;40;20084;-77
2021/07/22 09:47:07;;;;;;;9.75;6.28;;;;;;;25.93;32.82;101793.00;3589687;40;20045;-78
2021/07/22 09:49:37;;;;;;;9.98;6.60;;;;;;;26.04;32.42;101785.03;3590375;40;20033;-82
2021/07/22 09:52:11;;;;;;;10.20;6.80;;;;;;;26.11;31.79;101780.28;3589140;39;20048;-76
2021/07/22 09:54:39;;;;;;;11.80;6.95;;;;;;;26.14;31.95;101774.25;3591613;40;20085;-78
2021/07/22 09:57:15;;;;;;;10.18;7.15;;;;;;;26.24;32.01;101780.31;3591760;40;20041;-77
2021/07/22 09:59:47;;;;;;;9.13;6.57;;;;;;;26.30;31.67;101776.66;3590204;40;20310;-78
2021/07/22 10:02:18;;;;;;;8.93;7.00;;;;;;;26.35;31.60;101776.03;3589017;39;20052;-75
2021/07/22 10:04:51;;;;;;;8.68;6.47;;;;;;;26.43;31.75;101782.31;3587988;40;20045;-77
2021/07/22 10:07:21;;;;;;;12.77;7.20;;;;;;;26.52;32.32;101774.53;3589744;40;20082;-80
2021/07/22 10:09:52;;;;;;;10.50;6.78;;;;;;;26.60;31.50;101775.16;3590163;40;20118;-80
2021/07/22 10:12:23;;;;;;;10.00;6.47;;;;;;;26.65;31.46;101777.34;3589518;40;20040;-79
2021/07/22 10:14:57;;;;;;;8.48;6.55;;;;;;;26.73;30.77;101770.63;3579597;40;20291;-77
2021/07/22 10:17:27;;;;;;;8.68;5.82;;;;;;;26.73;30.36;101776.25;3579492;40;20055;-74
2021/07/22 10:19:58;;;;;;;8.25;5.63;;;;;;;26.76;30.48;101773.88;3587831;40;20036;-75
2021/07/22 10:22:26;;;;;;;7.95;5.20;;;;;;;26.75;30.56;101771.28;3588356;40;20032;-79
2021/07/22 10:24:55;;;;;;;7.93;5.45;;;;;;;26.79;30.22;101770.63;3589153;40;20133;-78
2021/07/22 10:27:23;;;;;;;8.82;5.75;;;;;;;26.81;30.27;101760.06;3589226;40;20080;-78
2021/07/22 10:29:52;;;;;;;7.50;5.43;;;;;;;26.84;30.26;101758.75;3585337;40;20036;-79
2021/07/22 10:32:24;;;;;;;10.05;5.88;;;;;;;26.89;29.92;101767.38;3588894;40;20044;-76
2021/07/22 10:34:59;;;;;;;10.65;6.38;;;;;;;26.91;29.83;101762.41;3589212;40;20036;-78
2021/07/22 10:37:27;;;;;;;9.10;6.00;;;;;;;26.93;29.98;101755.50;3569935;40;20053;-77
2021/07/22 10:40:07;;;;;;;9.10;6.35;;;;;;;27.00;29.15;101750.75;3571316;40;20123;-78
2021/07/22 10:42:46;;;;;;;9.30;6.05;;;;;;;27.04;29.27;101748.34;3573891;40;20037;-77
2021/07/22 10:45:27;;;;;;;9.68;6.38;;;;;;;27.08;28.71;101754.41;3567615;40;20037;-76
2021/07/22 10:48:04;;;;;;;8.63;6.68;;;;;;;27.13;29.32;101741.44;3563586;40;20042;-78
2021/07/22 10:51:01;;;;;;;9.63;6.50;;;;;;;27.15;29.64;101744.88;3566620;40;20033;-78
2021/07/22 10:53:37;;;;;;;10.02;6.30;;;;;;;27.20;28.38;101735.78;3560925;40;20090;-79
2021/07/22 10:56:06;;;;;;;8.98;6.22;;;;;;;27.20;29.03;101735.78;3559421;40;20081;-79
2021/07/22 10:58:53;;;;;;;9.35;7.03;;;;;;;27.21;28.66;101741.19;3567051;40;20135;-78
2021/07/22 11:01:50;;;;;;;9.73;6.47;;;;;;;27.19;28.98;101734.91;3544245;40;20042;-78
2021/07/22 11:04:46;;;;;;;8.43;5.82;;;;;;;27.17;29.07;101731.50;3567421;40;20433;-77
2021/07/22 11:07:19;;;;;;;9.27;6.93;;;;;;;27.21;28.76;101729.94;3567827;40;20174;-75
2021/07/22 11:10:07;;;;;;;8.45;5.88;;;;;;;27.18;28.98;101723.88;3565219;40;20050;-73
2021/07/22 11:12:47;;;;;;;8.52;6.22;;;;;;;27.23;28.21;101721.31;3567815;40;20055;-75
2021/07/22 11:16:00;;;;;;;8.02;5.75;;;;;;;27.12;28.62;101722.84;3576203;40;20145;-74
2021/07/22 11:18:50;;;;;;;9.25;6.05;;;;;;;27.18;28.24;101724.75;3545379;40;20035;-76
2021/07/22 11:21:23;;;;;;;7.70;5.80;;;;;;;27.22;28.04;101728.00;3567485;39;20039;-75
2021/07/22 11:24:02;;;;;;;7.55;5.45;;;;;;;27.24;27.97;101718.28;3578157;40;20048;-75
2021/07/22 11:26:32;;;;;;;8.88;5.80;;;;;;;27.25;28.32;101716.31;3584582;40;20122;-75
2021/07/22 11:29:17;;;;;;;8.32;6.03;;;;;;;27.27;27.89;101708.50;3586205;40;20056;-74
2021/07/22 11:31:47;;;;;;;10.68;6.72;;;;;;;27.28;28.29;101713.91;3586361;40;20051;-76
2021/07/22 11:34:16;;;;;;;9.10;6.57;;;;;;;27.29;28.14;101712.84;3581301;40;20047;-81
2021/07/22 11:36:45;;;;;;;8.80;6.55;;;;;;;27.32;28.34;101719.97;3587173;40;20066;-77
2021/07/22 11:39:13;;;;;;;9.43;7.00;;;;;;;27.32;28.30;101709.59;3587680;40;20052;-78
2021/07/22 11:41:42;;;;;;;9.55;7.13;;;;;;;27.34;28.04;101706.53;3588616;39;20064;-80
2021/07/22 11:44:10;;;;;;;8.75;6.72;;;;;;;27.37;28.08;101706.09;3589386;40;20385;-80
2021/07/22 11:46:41;;;;;;;9.30;6.82;;;;;;;27.41;28.01;101707.38;3574759;40;20044;-79